Airfield :
LOGIN :

Register | Disclaimer

   EN    FR    IT 

 










Legend :    VFR   Marginal VFR   IFR   Intensive IFR   Very Intensive IFR
Visi :
Ceiling :
>= 8 km
>= 3000ft
5 to 8 km
1000 to 3000 ft
1500m to 5 km
500 to 1000 ft
800 to 1500m
200 to 500 ft
< 800m
< 200 ft
Symbols :   Thunderstorms  Fog  Heavy snow  Heavy precipitations  Wind > 20 kt
SIGMETs :     Misc.  Thunderstorms  Icing  Turbulence  Mountain Waves  Volcanic Ashes






- Airport Elevation : 289 ft
- IATA code : ZAD


LDZD - Zadar

CURRENT METAR :
  • 040630Z 06008KT CAVOK 31/18 Q1015 NOSIG

EXPIRED METARs :
  • 040600Z 06007KT 030V110 CAVOK 30/18 Q1015 NOSIG
  • 040530Z VRB02KT CAVOK 29/18 Q1015 NOSIG
  • 040500Z 10003KT 070V150 CAVOK 26/18 Q1015 NOSIG
  • 040430Z 06003KT 020V110 CAVOK 26/17 Q1015 NOSIG

TAF TAF LDZD
Valid from the 04 at 06:00 until the 05 at 06:00 UTC


040525Z 0406/0506 05005KT 9999 FEW060 TX36/0412Z TN20/0503Z
BECMG 0409/0411 30010KT
PROB30
TEMPO 0413/0415 04012KT FEW060CB
BECMG 0414/0416 32004KT



MET'MAP, your aeronautical weather chart ! - Copyright ORBIFLY December 2007 - Disclaimer

ORBIFLY MET'MAP TEAM :

Programming & Development : Alexandra Zaïnal
Original concept : Baudouin d'Aumeries
Technical & hardware support : Manuel Goepfert
Assistance : Marc-Olivier Méhu




SOURCES & CREDITS :

   NOAA